Time;durP1;ratioP1;P1;durP2;ratioP2;P2;SDS_P1;SDS_P2;PMS_P1;PMS_P2;Temp;Humidity;BMP_temperature;BMP_pressure;BME280_temperature;BME280_humidity;BME280_pressure;Samples;Min_cycle;Max_cycle;Signal;HPM_P1;HPM_P2
2023/04/25 00:01:59;;;;;;;10.70;9.90;;;;;;;14.21;52.45;99282.00;5014181;28;101567;-83
2023/04/25 00:04:26;;;;;;;9.88;9.25;;;;;;;14.20;52.23;99275.03;5027830;27;97344;-84
2023/04/25 00:06:53;;;;;;;9.38;8.88;;;;;;;14.19;52.23;99275.97;5039761;27;97066;-83
2023/04/25 00:09:19;;;;;;;9.95;9.25;;;;;;;14.17;52.45;99272.59;5057464;27;97688;-82
2023/04/25 00:11:44;;;;;;;9.80;9.20;;;;;;;14.13;52.36;99275.53;5014044;28;101670;-83
2023/04/25 00:14:10;;;;;;;9.27;8.68;;;;;;;14.16;51.84;99286.72;5014433;28;96742;-85
2023/04/25 00:16:36;;;;;;;9.85;9.15;;;;;;;14.13;52.12;99279.00;5027957;28;96917;-83
2023/04/25 00:19:04;;;;;;;9.68;9.18;;;;;;;14.02;52.00;99257.75;5010018;28;101460;-83
2023/04/25 00:21:31;;;;;;;9.75;9.15;;;;;;;14.16;52.28;99278.81;5030977;28;98652;-84
2023/04/25 00:23:57;;;;;;;9.32;8.75;;;;;;;14.02;52.10;99263.03;5041717;27;97223;-83
2023/04/25 00:26:23;;;;;;;9.15;8.65;;;;;;;13.90;52.11;99246.19;4954897;28;1209900;-83
2023/04/25 00:28:48;;;;;;;9.88;9.27;;;;;;;14.06;52.46;99277.72;5026906;28;101690;-82
2023/04/25 00:31:14;;;;;;;9.18;8.68;;;;;;;14.07;52.02;99279.41;5006604;28;101654;-85
2023/04/25 00:33:40;;;;;;;9.93;9.18;;;;;;;14.04;52.41;99276.97;5031370;28;97212;-83
2023/04/25 00:36:06;;;;;;;9.93;9.07;;;;;;;14.02;52.54;99276.22;5029342;27;96902;-83
2023/04/25 00:38:31;;;;;;;9.88;9.27;;;;;;;13.97;52.18;99273.06;5008915;28;101618;-82
2023/04/25 00:40:57;;;;;;;9.93;9.05;;;;;;;13.99;51.98;99282.56;5029502;27;97287;-83
2023/04/25 00:43:26;;;;;;;10.18;9.48;;;;;;;13.88;52.10;99266.56;5014887;28;97304;-82
2023/04/25 00:45:52;;;;;;;12.80;9.50;;;;;;;13.94;52.37;99284.66;4996836;28;97303;-82
2023/04/25 00:48:17;;;;;;;9.30;8.80;;;;;;;13.90;52.05;99280.50;5012153;28;100483;-82
2023/04/25 00:50:53;;;;;;;9.65;9.05;;;;;;;13.91;52.14;99284.84;4996702;28;101706;-82
2023/04/25 00:53:23;;;;;;;10.65;9.73;;;;;;;13.92;52.39;99285.69;5014483;27;96954;-82
2023/04/25 00:55:50;;;;;;;10.02;9.32;;;;;;;13.87;51.87;99278.06;5023187;27;97482;-83
2023/04/25 00:58:20;;;;;;;9.85;9.02;;;;;;;13.87;52.21;99280.69;5027483;28;101382;-82
2023/04/25 01:00:47;;;;;;;9.52;9.02;;;;;;;13.86;52.20;99289.56;5040152;27;101259;-83
2023/04/25 01:03:13;;;;;;;10.05;9.45;;;;;;;13.74;51.55;99278.00;5014459;28;96754;-85
2023/04/25 01:05:41;;;;;;;9.88;9.23;;;;;;;13.85;51.57;99292.31;5005709;28;96802;-83
2023/04/25 01:08:07;;;;;;;10.30;9.57;;;;;;;13.78;52.10;99295.31;5014604;28;98497;-83
2023/04/25 01:10:32;;;;;;;10.10;9.50;;;;;;;13.73;52.06;99289.50;5013817;28;101432;-82
2023/04/25 01:12:58;;;;;;;9.25;8.65;;;;;;;13.63;51.92;99277.81;4989468;28;96757;-83
2023/04/25 01:15:24;;;;;;;9.57;8.98;;;;;;;13.64;51.50;99281.31;5012947;28;97155;-83
2023/04/25 01:17:50;;;;;;;11.32;10.35;;;;;;;13.65;51.56;99283.84;5030112;27;101710;-84
2023/04/25 01:20:16;;;;;;;10.05;9.45;;;;;;;13.66;51.92;99296.09;4995179;28;101154;-83
2023/04/25 01:22:43;;;;;;;10.52;9.73;;;;;;;13.67;51.82;99295.16;5015596;28;96927;-82
2023/04/25 01:25:09;;;;;;;11.20;10.30;;;;;;;13.63;52.04;99298.91;5014593;28;96966;-82
2023/04/25 01:27:36;;;;;;;11.38;10.55;;;;;;;13.63;51.97;99293.66;5012818;28;100672;-83
2023/04/25 01:30:03;;;;;;;10.77;9.77;;;;;;;13.61;51.64;99287.63;5014121;28;101489;-82
2023/04/25 01:32:37;;;;;;;9.65;8.85;;;;;;;13.49;51.30;99272.56;4995736;28;97111;-83
2023/04/25 01:35:09;;;;;;;10.80;10.00;;;;;;;13.60;51.99;99296.47;4999296;28;97195;-82
2023/04/25 01:37:42;;;;;;;11.27;10.57;;;;;;;13.57;51.88;99292.25;5024724;28;98417;-83
2023/04/25 01:40:09;;;;;;;9.75;9.15;;;;;;;13.52;51.87;99288.19;5025689;27;101655;-82
2023/04/25 01:42:36;;;;;;;10.40;9.70;;;;;;;13.55;51.24;99296.75;4997300;28;97058;-83
2023/04/25 01:45:02;;;;;;;10.75;10.05;;;;;;;13.41;52.03;99275.72;5014619;28;97067;-83
2023/04/25 01:47:28;;;;;;;9.95;9.27;;;;;;;13.52;51.72;99301.38;5014354;28;98060;-82
2023/04/25 01:49:54;;;;;;;10.90;10.10;;;;;;;13.49;52.05;99297.13;4994205;28;101687;-82
2023/04/25 01:52:20;;;;;;;10.10;9.15;;;;;;;13.48;52.36;99302.53;5033161;27;98038;-83
2023/04/25 01:54:46;;;;;;;10.77;9.68;;;;;;;13.43;51.98;99300.16;4997832;28;97102;-84
2023/04/25 01:57:13;;;;;;;10.10;9.50;;;;;;;13.40;52.20;99294.25;5007114;28;100541;-83
2023/04/25 01:59:41;;;;;;;10.65;9.95;;;;;;;13.42;51.82;99298.47;5002194;28;101316;-83
2023/04/25 02:02:24;;;;;;;11.02;10.18;;;;;;;13.41;52.10;99301.19;5014559;28;97188;-83
2023/04/25 02:04:49;;;;;;;10.00;9.30;;;;;;;13.26;52.00;99287.19;5010122;28;97156;-83
2023/04/25 02:07:16;;;;;;;10.38;9.70;;;;;;;13.33;52.25;99309.59;5013333;28;102042;-87
2023/04/25 02:09:49;;;;;;;11.07;10.38;;;;;;;13.31;52.18;99311.47;5005418;28;101524;-83
2023/04/25 02:12:16;;;;;;;10.77;10.00;;;;;;;13.27;52.40;99308.19;4998823;28;97045;-86
2023/04/25 02:14:54;;;;;;;10.95;10.20;;;;;;;13.26;52.23;99310.88;5021611;28;97340;-82
2023/04/25 02:17:37;;;;;;;10.82;10.05;;;;;;;13.14;52.59;99297.50;5003812;27;101568;-83
2023/04/25 02:20:03;;;;;;;12.00;10.88;;;;;;;13.20;52.02;99309.44;4996850;28;101063;-82
2023/04/25 02:22:30;;;;;;;11.82;10.60;;;;;;;13.22;52.34;99312.00;5013775;28;96836;-82
2023/04/25 02:24:55;;;;;;;10.43;9.52;;;;;;;13.05;52.92;99289.31;5022839;28;97022;-84
2023/04/25 02:27:21;;;;;;;10.10;9.50;;;;;;;13.15;52.35;99306.25;5011121;28;101737;-82
2023/04/25 02:29:47;;;;;;;11.27;10.30;;;;;;;13.10;52.83;99298.63;5031132;27;98398;-83
2023/04/25 02:32:12;;;;;;;11.70;10.68;;;;;;;13.13;52.45;99303.72;5004525;28;96810;-83
2023/04/25 02:34:38;;;;;;;11.30;10.20;;;;;;;13.09;52.83;99301.38;4993842;28;97553;-82
2023/04/25 02:37:03;;;;;;;11.00;10.10;;;;;;;13.06;52.45;99304.16;5025574;28;97693;-83
2023/04/25 02:39:29;;;;;;;11.25;10.27;;;;;;;13.06;52.89;99302.41;5027531;27;97936;-83
2023/04/25 02:41:55;;;;;;;12.25;11.05;;;;;;;13.08;52.61;99297.03;5015813;28;96772;-83
2023/04/25 02:44:20;;;;;;;11.70;10.70;;;;;;;12.94;52.81;99286.47;5013794;28;96869;-83
2023/04/25 02:46:46;;;;;;;9.70;9.10;;;;;;;13.00;52.91;99296.63;4996467;28;101320;-83
2023/04/25 02:49:11;;;;;;;11.50;10.50;;;;;;;13.00;52.69;99307.16;5004497;28;101187;-83
2023/04/25 02:51:37;;;;;;;10.40;9.60;;;;;;;12.93;53.16;99296.16;5021659;28;96800;-83
2023/04/25 02:54:03;;;;;;;11.57;10.75;;;;;;;12.84;52.96;99291.44;5013208;28;97408;-83
2023/04/25 02:56:32;;;;;;;11.18;10.38;;;;;;;12.88;53.04;99296.41;5028678;27;101829;-82
2023/04/25 02:58:59;;;;;;;12.13;10.88;;;;;;;12.87;53.44;99307.06;5038399;27;100091;-82
2023/04/25 03:01:24;;;;;;;12.13;11.20;;;;;;;12.65;53.40;99276.75;4997380;28;97168;-83
2023/04/25 03:03:50;;;;;;;13.95;11.82;;;;;;;12.80;53.47;99303.94;5013783;28;97494;-82
2023/04/25 03:06:16;;;;;;;12.18;10.98;;;;;;;12.59;53.62;99271.81;5012478;28;100914;-83
2023/04/25 03:08:41;;;;;;;11.85;10.80;;;;;;;12.82;53.36;99295.94;5009748;28;98187;-83
2023/04/25 03:11:07;;;;;;;12.27;11.07;;;;;;;12.78;53.62;99294.44;5037417;27;98233;-83
2023/04/25 03:13:34;;;;;;;12.05;11.25;;;;;;;12.69;53.77;99283.50;4993113;28;97284;-82
2023/04/25 03:15:59;;;;;;;11.98;10.75;;;;;;;12.76;53.77;99298.94;4993415;28;101433;-82
2023/04/25 03:18:25;;;;;;;12.18;11.02;;;;;;;12.76;53.80;99301.56;5024352;27;101204;-82
2023/04/25 03:20:51;;;;;;;11.68;10.85;;;;;;;12.74;53.49;99298.19;4996961;28;96789;-82
2023/04/25 03:23:16;;;;;;;11.68;10.77;;;;;;;12.74;53.85;99298.19;5017133;28;96757;-82
2023/04/25 03:25:42;;;;;;;12.13;11.25;;;;;;;12.73;53.53;99302.59;5011597;28;101835;-82
2023/04/25 03:28:07;;;;;;;14.38;11.90;;;;;;;12.74;53.87;99304.31;5011901;28;101373;-82
2023/04/25 03:30:33;;;;;;;11.32;10.60;;;;;;;12.73;53.56;99299.13;5026218;28;97025;-82
2023/04/25 03:32:59;;;;;;;11.57;10.57;;;;;;;12.71;53.90;99298.38;5025818;28;97525;-82
2023/04/25 03:35:25;;;;;;;12.30;11.10;;;;;;;12.67;53.59;99303.81;5018256;28;101320;-82
2023/04/25 03:37:50;;;;;;;14.48;11.00;;;;;;;12.63;53.37;99296.19;5015773;28;101554;-82
2023/04/25 03:40:21;;;;;;;12.18;11.18;;;;;;;12.67;53.39;99306.44;5000669;28;96944;-83
2023/04/25 03:43:05;;;;;;;11.35;10.55;;;;;;;12.65;53.34;99305.72;5014494;28;97230;-82
2023/04/25 03:45:32;;;;;;;11.43;10.65;;;;;;;12.71;53.67;99312.38;5034229;27;102119;-82
2023/04/25 03:47:58;;;;;;;11.68;10.75;;;;;;;12.65;53.20;99304.84;5016372;28;101336;-82
2023/04/25 03:50:23;;;;;;;11.02;10.25;;;;;;;12.56;53.29;99298.31;5020145;28;97943;-82
2023/04/25 03:52:49;;;;;;;12.23;11.13;;;;;;;12.60;53.75;99309.53;5005169;28;97779;-82
2023/04/25 03:55:15;;;;;;;11.93;11.10;;;;;;;12.56;53.62;99305.38;4991379;28;101575;-82
2023/04/25 03:57:41;;;;;;;12.07;11.02;;;;;;;12.62;53.67;99315.53;4998335;28;101253;-84
2023/04/25 04:00:07;;;;;;;13.23;12.23;;;;;;;12.59;53.64;99313.09;5023092;27;96807;-82
2023/04/25 04:02:38;;;;;;;12.27;11.25;;;;;;;12.60;53.99;99318.28;5036246;27;97460;-83
2023/04/25 04:05:05;;;;;;;15.13;11.23;;;;;;;12.61;53.30;99319.97;5020063;28;102324;-83
2023/04/25 04:07:36;;;;;;;12.57;11.43;;;;;;;12.55;53.58;99320.34;5030924;27;101870;-82
2023/04/25 04:10:02;;;;;;;12.52;11.07;;;;;;;12.60;53.64;99320.06;4999440;28;96906;-83
2023/04/25 04:12:33;;;;;;;12.82;11.70;;;;;;;12.59;54.04;99329.72;5016720;28;96976;-82
2023/04/25 04:15:03;;;;;;;12.25;11.35;;;;;;;12.39;53.79;99303.72;5016791;28;101996;-84
2023/04/25 04:17:29;;;;;;;13.05;11.90;;;;;;;12.54;54.12;99320.44;5015274;28;101493;-83
2023/04/25 04:19:56;;;;;;;12.50;11.60;;;;;;;12.51;54.19;99320.59;4998988;28;97473;-82
2023/04/25 04:22:22;;;;;;;13.23;12.13;;;;;;;12.55;53.89;99332.66;5009139;28;97097;-85
2023/04/25 04:24:52;;;;;;;18.10;12.48;;;;;;;12.62;54.01;99339.25;4996701;28;101893;-82
2023/04/25 04:27:23;;;;;;;12.57;11.77;;;;;;;12.61;54.20;99340.19;5009301;28;100710;-84
2023/04/25 04:30:08;;;;;;;12.13;11.13;;;;;;;12.63;53.81;99343.59;5018188;28;97032;-83
2023/04/25 04:32:38;;;;;;;12.23;11.43;;;;;;;12.62;54.23;99341.88;4990304;28;97368;-84
2023/04/25 04:35:06;;;;;;;12.55;11.60;;;;;;;12.60;53.88;99343.78;5003596;28;101323;-84
2023/04/25 04:37:33;;;;;;;13.32;12.43;;;;;;;12.55;53.48;99335.28;5015253;28;101929;-84
2023/04/25 04:40:04;;;;;;;13.77;12.55;;;;;;;12.59;53.92;99339.41;5017204;28;96839;-83
2023/04/25 04:42:50;;;;;;;12.63;11.55;;;;;;;12.58;54.16;99350.91;5027848;27;97309;-85
2023/04/25 04:45:40;;;;;;;13.05;11.93;;;;;;;12.60;54.07;99352.50;5011950;28;100614;-84
2023/04/25 04:48:11;;;;;;;12.65;11.55;;;;;;;12.65;54.19;99354.84;5037796;27;97594;-83
2023/04/25 04:50:56;;;;;;;12.07;11.07;;;;;;;12.66;54.34;99351.31;4998692;27;97220;-80
2023/04/25 04:53:43;;;;;;;11.65;10.75;;;;;;;12.60;54.28;99335.88;5015981;28;97323;-82
2023/04/25 04:56:38;;;;;;;13.45;12.13;;;;;;;12.59;53.94;99332.38;5022759;27;97963;-83
2023/04/25 04:59:21;;;;;;;13.20;12.25;;;;;;;12.73;53.92;99350.00;5014955;28;101549;-83
2023/04/25 05:01:58;;;;;;;11.93;11.13;;;;;;;12.71;53.96;99341.34;5025114;28;97232;-82
2023/04/25 05:04:42;;;;;;;11.65;10.85;;;;;;;12.79;53.82;99348.78;5013696;28;97082;-83
2023/04/25 05:07:30;;;;;;;12.05;11.10;;;;;;;12.74;53.23;99328.03;5042134;27;98738;-84
2023/04/25 05:10:05;;;;;;;12.63;11.27;;;;;;;12.82;53.77;99344.19;4990365;28;101967;-83
2023/04/25 05:12:49;;;;;;;14.52;11.60;;;;;;;12.89;53.68;99350.81;5019003;28;96950;-83
2023/04/25 05:15:29;;;;;;;11.93;10.77;;;;;;;12.87;53.29;99343.94;5030060;28;97060;-83
2023/04/25 05:18:13;;;;;;;12.13;11.07;;;;;;;12.99;53.38;99340.56;5017474;28;102240;-83
2023/04/25 05:20:53;;;;;;;12.10;11.00;;;;;;;12.88;52.59;99335.94;5016256;28;101386;-83
2023/04/25 05:23:25;;;;;;;12.60;11.55;;;;;;;12.93;52.63;99326.94;5011929;28;97814;-84
2023/04/25 05:26:13;;;;;;;11.45;10.52;;;;;;;13.02;52.73;99340.38;5004548;28;97403;-84
2023/04/25 05:29:05;;;;;;;13.63;12.25;;;;;;;13.03;52.76;99333.31;5004333;27;97880;-87
2023/04/25 05:31:54;;;;;;;12.00;11.07;;;;;;;12.98;52.75;99322.25;5010273;28;98039;-84
2023/04/25 05:34:19;;;;;;;13.02;11.80;;;;;;;13.08;52.53;99339.16;5013161;28;97080;-83
2023/04/25 05:36:56;;;;;;;12.65;11.48;;;;;;;13.08;52.17;99340.00;5015760;27;97349;-81
2023/04/25 05:39:22;;;;;;;12.50;11.35;;;;;;;13.11;52.37;99337.19;5011794;28;98435;-81
2023/04/25 05:42:06;;;;;;;12.77;11.63;;;;;;;13.14;52.07;99334.38;5012684;28;97031;-82
2023/04/25 05:44:50;;;;;;;10.77;10.00;;;;;;;13.18;51.78;99342.09;5008469;28;96790;-81
2023/04/25 05:47:23;;;;;;;11.88;10.88;;;;;;;13.15;51.52;99329.97;5011847;28;97140;-82
2023/04/25 05:50:21;;;;;;;11.93;10.98;;;;;;;13.26;51.86;99332.81;5012581;27;99221;-81
2023/04/25 05:53:07;;;;;;;11.52;10.52;;;;;;;13.31;51.50;99338.66;5020741;27;97711;-82
2023/04/25 05:55:38;;;;;;;11.23;10.43;;;;;;;13.39;51.52;99346.13;4997292;28;97470;-81
2023/04/25 05:58:18;;;;;;;12.50;11.05;;;;;;;13.48;51.41;99342.06;5027603;28;97380;-81
2023/04/25 06:00:44;;;;;;;11.32;10.43;;;;;;;13.53;52.00;99338.22;4995826;28;101219;-81
2023/04/25 06:03:10;;;;;;;11.48;10.68;;;;;;;13.67;51.68;99347.03;5013199;28;101730;-81
2023/04/25 06:05:36;;;;;;;12.45;11.27;;;;;;;13.76;50.72;99344.69;5011057;28;97811;-81
2023/04/25 06:08:02;;;;;;;12.38;11.27;;;;;;;13.84;50.50;99341.56;5024768;27;97009;-82
2023/04/25 06:10:27;;;;;;;13.05;12.05;;;;;;;13.91;50.65;99340.25;5019923;27;101377;-81
2023/04/25 06:12:53;;;;;;;11.98;10.98;;;;;;;13.98;50.03;99340.69;5013210;28;101249;-81
2023/04/25 06:15:20;;;;;;;11.98;10.80;;;;;;;14.01;50.12;99330.78;5020099;27;96777;-81
2023/04/25 06:17:46;;;;;;;15.85;11.35;;;;;;;14.11;49.19;99343.38;5005224;28;96937;-80
2023/04/25 06:20:11;;;;;;;10.70;9.60;;;;;;;14.19;49.35;99344.59;4996170;28;101979;-80
2023/04/25 06:22:39;;;;;;;10.60;9.82;;;;;;;14.24;49.30;99334.59;5003467;28;101571;-82
2023/04/25 06:25:06;;;;;;;11.20;10.30;;;;;;;14.44;49.30;99335.94;4991464;28;96881;-80
2023/04/25 06:27:33;;;;;;;12.32;10.43;;;;;;;14.60;48.76;99321.75;5031258;27;96839;-90
2023/04/25 06:30:01;;;;;;;12.73;11.52;;;;;;;14.87;48.44;99334.91;5012885;28;99692;-89
2023/04/25 06:32:29;;;;;;;11.40;10.25;;;;;;;15.09;48.18;99334.28;4999326;28;101670;-87
2023/04/25 06:34:58;;;;;;;11.05;10.15;;;;;;;15.16;47.81;99327.66;5012680;28;96764;-92
2023/04/25 06:37:23;;;;;;;11.93;10.75;;;;;;;15.36;47.02;99326.28;5016700;28;96837;-89
2023/04/25 06:39:50;;;;;;;11.88;10.80;;;;;;;15.38;46.65;99330.47;4992016;28;100527;-88
2023/04/25 06:42:16;;;;;;;11.73;10.77;;;;;;;15.48;45.94;99311.34;5031541;28;98348;-94
2023/04/25 06:44:51;;;;;;;11.55;10.73;;;;;;;15.67;46.32;99335.53;5030118;27;96920;-90
2023/04/25 06:47:17;;;;;;;12.18;11.27;;;;;;;15.81;46.11;99330.16;5014247;28;97492;-84
2023/04/25 06:49:43;;;;;;;11.15;10.35;;;;;;;16.03;45.98;99329.47;4987259;28;101882;-86
2023/04/25 06:52:10;;;;;;;11.30;10.20;;;;;;;16.12;45.33;99324.47;5019494;27;100744;-86
2023/04/25 06:54:36;;;;;;;11.82;10.88;;;;;;;16.37;44.66;99323.50;5031723;28;96965;-85
2023/04/25 06:57:17;;;;;;;11.93;10.90;;;;;;;16.67;44.70;99323.03;4999640;28;97291;-84
2023/04/25 06:59:43;;;;;;;11.43;10.52;;;;;;;16.84;44.24;99317.34;5022656;28;100795;-96
2023/04/25 07:02:08;;;;;;;12.90;11.60;;;;;;;17.08;43.90;99322.56;5010054;28;100753;-95
2023/04/25 07:04:34;;;;;;;11.85;10.95;;;;;;;17.27;42.64;99322.00;5013010;28;96732;-95
2023/04/25 07:07:02;;;;;;;11.65;10.65;;;;;;;17.19;42.57;99274.88;5048895;27;96855;-95
2023/04/25 07:09:55;;;;;;;12.55;11.45;;;;;;;17.64;42.09;99308.50;5021282;28;100750;-96
2023/04/25 07:12:21;;;;;;;11.93;10.95;;;;;;;17.67;41.51;99287.03;5033074;28;100424;-95
2023/04/25 07:14:47;;;;;;;11.40;10.48;;;;;;;17.53;41.00;99258.94;5021172;28;97222;-96
2023/04/25 07:17:15;;;;;;;12.70;10.55;;;;;;;17.59;40.83;99282.31;5048490;27;96790;-95
2023/04/25 07:19:41;;;;;;;11.77;10.77;;;;;;;17.63;40.70;99293.56;5012642;28;100581;-95
2023/04/25 07:22:08;;;;;;;12.25;11.15;;;;;;;17.45;40.96;99301.13;5028653;28;101363;-94
2023/04/25 07:24:36;;;;;;;13.07;11.77;;;;;;;17.18;40.94;99253.75;5028009;28;96860;-96
2023/04/25 07:27:02;;;;;;;11.25;10.32;;;;;;;17.45;41.48;99313.56;5021600;28;96980;-89
2023/04/25 07:29:40;;;;;;;12.88;11.50;;;;;;;17.04;41.35;99254.81;5007570;27;100309;-84
2023/04/25 07:32:06;;;;;;;11.95;10.77;;;;;;;17.40;41.34;99314.78;5011567;27;100561;-88
2023/04/25 07:34:31;;;;;;;11.05;10.25;;;;;;;17.49;40.71;99323.81;5031538;27;96757;-85
2023/04/25 07:36:59;;;;;;;14.13;11.77;;;;;;;17.77;40.66;99330.47;5021748;27;96892;-86
2023/04/25 07:39:27;;;;;;;12.57;11.48;;;;;;;17.62;40.16;99295.34;5033599;27;101457;-86
2023/04/25 07:41:53;;;;;;;12.23;10.88;;;;;;;17.84;40.60;99320.22;5031468;27;101552;-86
2023/04/25 07:44:23;;;;;;;11.90;10.75;;;;;;;18.06;40.49;99314.00;5013177;28;97080;-87
2023/04/25 07:46:49;;;;;;;11.20;10.32;;;;;;;18.10;40.13;99297.72;5009656;28;97433;-87
2023/04/25 07:49:15;;;;;;;11.48;10.50;;;;;;;18.09;39.57;99288.06;5029354;27;101382;-86
2023/04/25 07:51:45;;;;;;;11.98;11.05;;;;;;;18.35;39.44;99281.56;5048318;27;100660;-87
2023/04/25 07:54:15;;;;;;;11.82;10.82;;;;;;;18.75;40.03;99313.69;5016034;28;96969;-87
2023/04/25 07:56:45;;;;;;;;;;;;;;;18.66;39.67;99311.75;5017587;28;97230;-87
2023/04/25 07:59:12;;;;;;;12.65;11.38;;;;;;;18.45;40.47;99278.03;5015331;28;101448;-87
2023/04/25 08:01:39;;;;;;;13.13;11.93;;;;;;;18.35;40.13;99292.19;5015969;28;99722;-87
2023/04/25 08:04:06;;;;;;;12.63;11.55;;;;;;;18.01;40.62;99287.00;5013635;27;97404;-86
2023/04/25 08:06:46;;;;;;;13.02;11.77;;;;;;;18.11;40.72;99319.81;5011555;27;97313;-86
2023/04/25 08:09:16;;;;;;;12.02;10.82;;;;;;;18.05;41.20;99272.50;5014839;27;100390;-86
2023/04/25 08:11:43;;;;;;;13.45;12.13;;;;;;;17.92;41.07;99274.47;4995277;28;101690;-86
2023/04/25 08:14:12;;;;;;;12.05;10.95;;;;;;;18.16;41.04;99291.06;4998795;27;96872;-86
2023/04/25 08:16:39;;;;;;;12.27;11.05;;;;;;;18.23;41.14;99284.28;5008295;27;97384;-86
2023/04/25 08:19:05;;;;;;;13.75;12.75;;;;;;;18.32;41.19;99307.44;5002208;27;101443;-82
2023/04/25 08:21:32;;;;;;;12.23;11.15;;;;;;;18.08;41.19;99312.94;5010828;28;98442;-81
2023/04/25 08:24:01;;;;;;;12.48;11.15;;;;;;;17.77;41.59;99324.28;5009126;27;97940;-82
2023/04/25 08:26:30;;;;;;;13.82;12.45;;;;;;;17.45;41.97;99318.88;5027146;27;97179;-83
2023/04/25 08:28:57;;;;;;;13.95;11.98;;;;;;;17.38;42.38;99326.47;5043022;27;101103;-86
2023/04/25 08:31:22;;;;;;;12.48;11.30;;;;;;;17.31;43.12;99317.31;5024290;28;99131;-87
2023/04/25 08:33:56;;;;;;;12.75;11.75;;;;;;;17.23;43.90;99331.16;5028872;27;97784;-87
2023/04/25 08:36:27;;;;;;;14.00;11.95;;;;;;;17.18;44.28;99335.97;4985606;27;97269;-87
2023/04/25 08:38:53;;;;;;;13.00;11.82;;;;;;;17.07;44.40;99338.59;5044052;27;101445;-87
2023/04/25 08:41:20;;;;;;;12.75;11.75;;;;;;;16.88;44.03;99332.03;5027591;27;100492;-87
2023/04/25 08:43:47;;;;;;;13.60;12.40;;;;;;;16.73;43.75;99333.19;5001403;28;97130;-87
2023/04/25 08:46:13;;;;;;;13.75;12.65;;;;;;;16.60;44.24;99329.75;5015517;27;97410;-87
2023/04/25 08:48:48;;;;;;;13.60;12.43;;;;;;;17.08;45.01;99329.69;5041487;27;99618;-87
2023/04/25 08:51:27;;;;;;;12.88;11.73;;;;;;;17.98;43.28;99335.06;5015033;27;100520;-86
2023/04/25 08:53:53;;;;;;;12.90;11.80;;;;;;;18.19;42.63;99330.66;5065782;27;97006;-88
2023/04/25 08:56:22;;;;;;;13.63;12.35;;;;;;;18.77;41.90;99317.06;5034978;27;96871;-88
2023/04/25 08:58:49;;;;;;;15.45;12.77;;;;;;;19.49;40.55;99294.94;5018949;28;100285;-88
2023/04/25 09:01:15;;;;;;;13.10;11.82;;;;;;;20.04;39.88;99316.72;5033435;27;101479;-87
2023/04/25 09:03:47;;;;;;;13.07;12.02;;;;;;;20.10;38.79;99318.84;5013430;28;97246;-89
2023/04/25 09:06:13;;;;;;;12.73;11.73;;;;;;;19.67;38.83;99319.97;5034536;27;96894;-91
2023/04/25 09:08:40;;;;;;;12.70;11.43;;;;;;;19.69;38.91;99317.16;5017185;28;100011;-96
2023/04/25 09:11:07;;;;;;;12.25;11.25;;;;;;;19.55;39.37;99326.34;5017196;28;100379;-91
2023/04/25 09:13:33;;;;;;;13.65;11.55;;;;;;;18.93;40.13;99282.03;5008776;28;97226;-89
2023/04/25 09:16:56;;;;;;;12.80;11.70;;;;;;;19.09;39.81;99330.28;4983917;28;97220;-85
2023/04/25 09:19:40;;;;;;;12.07;11.15;;;;;;;20.08;39.13;99322.63;4976702;28;97032;-85
2023/04/25 09:22:16;;;;;;;12.40;11.40;;;;;;;20.15;38.74;99328.22;5005629;27;101895;-82
2023/04/25 09:24:49;;;;;;;12.02;11.13;;;;;;;19.98;38.70;99324.41;5012186;28;97187;-84
2023/04/25 09:27:22;;;;;;;12.15;10.98;;;;;;;19.60;38.76;99326.75;5034387;27;96932;-84
2023/04/25 09:29:57;;;;;;;15.80;10.80;;;;;;;19.23;38.90;99335.28;5015763;27;100727;-81
2023/04/25 09:32:24;;;;;;;12.02;11.20;;;;;;;19.00;39.54;99318.63;5028489;27;101456;-78
2023/04/25 09:34:54;;;;;;;14.70;11.20;;;;;;;18.97;39.53;99336.66;5024339;27;97514;-76
2023/04/25 09:37:28;;;;;;;11.50;10.63;;;;;;;18.84;39.77;99333.34;5041174;27;97058;-76
2023/04/25 09:40:07;;;;;;;11.65;10.68;;;;;;;18.73;39.17;99310.25;5044660;27;98022;-86
2023/04/25 09:42:41;;;;;;;11.38;10.10;;;;;;;18.82;38.73;99319.31;5012158;28;101965;-87
2023/04/25 09:45:07;;;;;;;11.48;10.38;;;;;;;18.96;38.75;99330.47;4989595;28;96999;-85
2023/04/25 09:47:37;;;;;;;12.00;10.93;;;;;;;18.93;39.38;99332.56;5015105;28;97139;-87
2023/04/25 09:50:13;;;;;;;11.10;10.23;;;;;;;18.70;40.35;99324.69;5014451;28;101626;-87
2023/04/25 09:52:39;;;;;;;12.57;11.27;;;;;;;18.57;40.55;99345.25;5019125;28;101305;-87
2023/04/25 09:55:34;;;;;;;;;;;;;;;18.19;40.42;99338.63;5027046;27;97321;-88
2023/04/25 09:58:08;;;;;;;11.60;10.75;;;;;;;18.13;40.69;99338.28;5024487;27;97064;-89
2023/04/25 10:00:35;;;;;;;14.10;10.95;;;;;;;18.12;40.66;99344.53;4997834;28;100817;-90
2023/04/25 10:03:13;;;;;;;11.48;10.63;;;;;;;17.95;40.99;99337.94;5018299;28;100692;-83
2023/04/25 10:05:54;;;;;;;12.35;11.13;;;;;;;18.12;40.99;99340.06;5002200;27;96913;-86
2023/04/25 10:08:20;;;;;;;11.77;10.88;;;;;;;18.10;41.23;99347.34;5010329;27;96975;-88
2023/04/25 10:10:47;;;;;;;34.90;12.68;;;;;;;18.17;41.54;99355.66;5031573;27;97485;-76
2023/04/25 10:13:14;;;;;;;12.98;12.00;;;;;;;18.39;42.54;99344.13;5011723;28;100650;-76
2023/04/25 10:15:40;;;;;;;12.50;11.25;;;;;;;18.31;41.70;99339.44;5040742;27;97078;-76
2023/04/25 10:18:06;;;;;;;11.80;10.80;;;;;;;18.40;41.65;99344.00;5028800;27;97116;-75
2023/04/25 10:20:32;;;;;;;11.15;10.35;;;;;;;18.64;41.64;99342.94;5016991;27;97974;-76
2023/04/25 10:23:04;;;;;;;11.85;10.75;;;;;;;18.74;41.23;99343.91;4995895;28;101186;-83
2023/04/25 10:25:30;;;;;;;12.50;11.40;;;;;;;18.65;40.65;99342.81;5035297;27;97301;-81
2023/04/25 10:27:56;;;;;;;11.85;10.60;;;;;;;18.65;40.91;99342.00;5024116;27;97163;-86
2023/04/25 10:30:21;;;;;;;11.10;10.00;;;;;;;18.74;40.77;99343.91;5000551;27;100848;-80
2023/04/25 10:32:48;;;;;;;12.13;11.23;;;;;;;18.71;40.75;99326.38;5012177;28;101444;-80
2023/04/25 10:35:18;;;;;;;11.80;11.00;;;;;;;18.74;40.90;99333.28;5016571;27;97068;-83
2023/04/25 10:38:04;;;;;;;11.10;10.23;;;;;;;18.57;40.75;99329.31;5004004;28;97156;-82
2023/04/25 10:40:29;;;;;;;11.45;10.65;;;;;;;18.45;40.96;99333.00;5021453;27;101053;-80
2023/04/25 10:42:55;;;;;;;10.80;9.95;;;;;;;18.19;41.02;99321.84;5033088;27;101634;-81
2023/04/25 10:45:21;;;;;;;10.55;9.80;;;;;;;18.05;41.14;99315.84;5037931;27;96794;-78
2023/04/25 10:47:48;;;;;;;12.80;11.73;;;;;;;18.13;40.39;99333.81;5014445;28;97337;-81
2023/04/25 10:50:16;;;;;;;11.18;10.13;;;;;;;18.20;41.41;99334.16;5030195;27;100986;-80
2023/04/25 10:52:42;;;;;;;11.15;10.18;;;;;;;18.38;41.20;99319.34;5033744;27;98358;-81
2023/04/25 10:55:08;;;;;;;11.10;10.30;;;;;;;18.56;40.72;99327.66;5033071;28;97169;-81
2023/04/25 10:57:41;;;;;;;10.95;9.93;;;;;;;18.51;40.40;99312.06;5019286;27;96932;-85
2023/04/25 11:00:13;;;;;;;10.45;9.55;;;;;;;18.51;39.88;99327.19;5030864;27;97428;-79
2023/04/25 11:02:42;;;;;;;;;;;;;;;18.19;39.48;99320.03;5055045;27;101243;-88
2023/04/25 11:05:09;;;;;;;10.40;9.50;;;;;;;17.98;40.09;99296.06;5032563;27;97272;-79
2023/04/25 11:07:43;;;;;;;11.98;10.82;;;;;;;18.01;40.62;99318.88;4998298;27;97191;-78
2023/04/25 11:10:09;;;;;;;11.07;10.27;;;;;;;18.03;40.68;99320.41;5020903;27;98594;-79
2023/04/25 11:12:35;;;;;;;9.32;8.57;;;;;;;18.05;40.64;99317.66;5048594;27;98354;-78
2023/04/25 11:15:05;;;;;;;8.80;7.97;;;;;;;18.16;40.61;99322.94;5008573;28;96830;-78
2023/04/25 11:17:31;;;;;;;9.65;8.52;;;;;;;18.21;40.26;99323.41;5031425;27;97090;-79
2023/04/25 11:19:57;;;;;;;10.27;9.48;;;;;;;18.27;40.20;99314.09;5011738;28;101314;-81
2023/04/25 11:22:23;;;;;;;10.48;9.68;;;;;;;18.32;39.83;99310.09;5032681;27;97846;-78
2023/04/25 11:24:49;;;;;;;9.60;8.82;;;;;;;18.35;39.60;99300.16;5014369;28;97225;-81
2023/04/25 11:27:14;;;;;;;9.68;8.88;;;;;;;18.54;38.95;99330.41;5004716;27;96915;-75
2023/04/25 11:29:40;;;;;;;10.35;9.55;;;;;;;18.41;38.21;99326.22;5025691;27;97517;-83